createdAt,value
2023-01-29T00:02:20.741Z,96669.56
2023-01-29T00:04:48.564Z,96665.41
2023-01-29T00:07:16.457Z,96657.91
2023-01-29T00:09:44.406Z,96656.25
2023-01-29T00:12:13.603Z,96652.09
2023-01-29T00:14:41.524Z,96652.09
2023-01-29T00:17:12.316Z,96651.28
2023-01-29T00:19:40.328Z,96644.59
2023-01-29T00:22:08.079Z,96642.97
2023-01-29T00:24:35.994Z,96641.28
2023-01-29T00:27:03.968Z,96638.00
2023-01-29T00:29:33.192Z,96621.25
2023-01-29T00:32:01.101Z,96621.31
2023-01-29T00:34:29.050Z,96601.25
2023-01-29T00:37:04.804Z,96600.50
2023-01-29T00:39:47.439Z,96590.53
2023-01-29T00:42:33.592Z,96573.06
2023-01-29T00:45:02.857Z,96563.03
2023-01-29T00:47:34.420Z,96551.41
2023-01-29T00:50:03.156Z,96554.81
2023-01-29T00:52:31.321Z,96545.69
2023-01-29T00:55:06.063Z,96527.31
2023-01-29T00:57:35.513Z,96512.34
2023-01-29T01:00:12.105Z,96493.16
2023-01-29T01:02:57.489Z,96485.66
2023-01-29T01:05:27.575Z,96485.72
2023-01-29T01:07:58.282Z,96478.25
2023-01-29T01:10:28.834Z,96472.47
2023-01-29T01:12:58.975Z,96460.00
2023-01-29T01:15:30.569Z,96458.38
2023-01-29T01:18:00.329Z,96450.81
2023-01-29T01:20:30.667Z,96445.81
2023-01-29T01:22:58.863Z,96443.28
2023-01-29T01:25:30.245Z,96450.00
2023-01-29T01:28:02.711Z,96456.59
2023-01-29T01:30:33.097Z,96469.94
2023-01-29T01:33:01.641Z,96474.94
2023-01-29T01:35:29.511Z,96490.75
2023-01-29T01:37:57.325Z,96495.75
2023-01-29T01:40:26.667Z,96503.22
2023-01-29T01:42:56.157Z,96506.53
2023-01-29T01:45:33.024Z,96524.03
2023-01-29T01:48:04.333Z,96522.28
2023-01-29T01:50:36.232Z,96528.97
2023-01-29T01:53:08.567Z,96543.22
2023-01-29T01:55:40.828Z,96547.31
2023-01-29T01:58:13.758Z,96548.06
2023-01-29T02:00:43.636Z,96555.63
2023-01-29T02:03:30.822Z,96562.31
2023-01-29T02:06:19.802Z,96559.78
2023-01-29T02:09:13.210Z,96557.28
2023-01-29T02:11:41.882Z,96568.13
2023-01-29T02:14:09.976Z,96565.56
2023-01-29T02:16:39.506Z,96575.63
2023-01-29T02:22:30.028Z,96582.31
2023-01-29T02:25:10.354Z,96583.13
2023-01-29T02:28:03.651Z,96589.81
2023-01-29T02:30:37.130Z,96586.47
2023-01-29T02:33:14.353Z,96589.84
2023-01-29T02:35:46.324Z,96583.94
2023-01-29T02:38:22.819Z,96588.16
2023-01-29T02:40:55.887Z,96575.69
2023-01-29T02:43:35.356Z,96565.69
2023-01-29T02:46:12.501Z,96547.38
2023-01-29T02:48:45.924Z,96530.66
2023-01-29T02:51:21.062Z,96530.72
2023-01-29T02:53:54.692Z,96524.03
2023-01-29T02:56:28.549Z,96528.25
2023-01-29T02:59:01.544Z,96519.97
2023-01-29T03:01:35.199Z,96520.75
2023-01-29T03:04:08.526Z,96500.72
2023-01-29T03:06:40.305Z,96499.94
2023-01-29T03:09:14.648Z,96488.31
2023-01-29T03:11:47.281Z,96483.34
2023-01-29T03:14:19.569Z,96472.59
2023-01-29T03:16:51.953Z,96462.59
2023-01-29T03:19:28.454Z,96444.22
2023-01-29T03:22:00.163Z,96442.59
2023-01-29T03:24:57.296Z,96441.00
2023-01-29T03:27:49.846Z,96425.94
2023-01-29T03:30:38.269Z,96414.31
2023-01-29T03:33:35.170Z,96408.50
2023-01-29T03:36:07.715Z,96408.56
2023-01-29T03:38:36.223Z,96405.22
2023-01-29T03:41:09.919Z,96402.75
2023-01-29T03:43:44.674Z,96396.09
2023-01-29T03:46:19.125Z,96394.44
2023-01-29T03:48:56.573Z,96394.50
2023-01-29T03:51:37.501Z,96386.13
2023-01-29T03:54:10.844Z,96394.50
2023-01-29T03:56:51.404Z,96390.34
2023-01-29T03:59:32.009Z,96389.47
2023-01-29T04:02:39.779Z,96384.44
2023-01-29T04:05:17.389Z,96371.94
2023-01-29T04:08:06.077Z,96362.88
2023-01-29T04:10:36.925Z,96357.09
2023-01-29T04:13:10.145Z,96339.56
2023-01-29T04:15:45.065Z,96341.28
2023-01-29T04:18:14.882Z,96329.63
2023-01-29T04:21:02.539Z,96336.31
2023-01-29T04:23:30.817Z,96331.34
2023-01-29T04:26:16.840Z,96327.94
2023-01-29T04:28:55.705Z,96342.97
2023-01-29T04:31:28.868Z,96340.47
2023-01-29T04:34:12.248Z,96351.22
2023-01-29T04:36:47.880Z,96357.84
2023-01-29T04:39:20.123Z,96374.53
2023-01-29T04:41:54.416Z,96387.84
2023-01-29T04:44:30.247Z,96399.47
2023-01-29T04:47:07.316Z,96412.75
2023-01-29T04:49:45.625Z,96417.75
2023-01-29T04:52:20.825Z,96423.50
2023-01-29T04:54:56.778Z,96438.50
2023-01-29T04:57:31.340Z,96453.47
2023-01-29T05:00:05.568Z,96460.97
2023-01-29T05:02:35.587Z,96472.66
2023-01-29T05:05:06.986Z,96477.56
2023-01-29T05:07:37.310Z,96481.72
2023-01-29T05:10:06.745Z,96497.50
2023-01-29T05:12:36.834Z,96505.81
2023-01-29T05:15:10.234Z,96539.22
2023-01-29T05:17:38.090Z,96539.09
2023-01-29T05:20:08.580Z,96565.00
2023-01-29T05:22:40.464Z,96580.75
2023-01-29T05:25:22.195Z,96592.38
2023-01-29T05:28:06.384Z,96603.22
2023-01-29T05:30:36.231Z,96614.91
2023-01-29T05:33:04.719Z,96621.53
2023-01-29T05:35:34.825Z,96639.84
2023-01-29T05:38:02.767Z,96651.47
2023-01-29T05:40:30.775Z,96658.16
2023-01-29T05:42:58.650Z,96676.56
2023-01-29T05:45:26.514Z,96683.16
2023-01-29T05:47:57.800Z,96692.28
2023-01-29T05:50:26.504Z,96714.06
2023-01-29T05:52:59.259Z,96723.97
2023-01-29T05:55:29.344Z,96734.78
2023-01-29T05:57:57.168Z,96740.59
2023-01-29T06:00:25.344Z,96751.44
2023-01-29T06:02:53.264Z,96766.47
2023-01-29T06:05:21.103Z,96769.75
2023-01-29T06:07:48.955Z,96777.22
2023-01-29T06:10:19.635Z,96787.25
2023-01-29T06:12:47.759Z,96800.56
2023-01-29T06:15:16.403Z,96812.25
2023-01-29T06:17:44.536Z,96814.75
2023-01-29T06:20:13.206Z,96824.78
2023-01-29T06:22:41.039Z,96838.97
2023-01-29T06:25:10.025Z,96834.75
2023-01-29T06:27:39.255Z,96847.25
2023-01-29T06:33:01.653Z,96860.56
2023-01-29T06:35:29.756Z,96873.94
2023-01-29T06:37:57.614Z,96877.28
2023-01-29T06:40:25.456Z,96885.59
2023-01-29T06:42:54.605Z,96893.94
2023-01-29T06:45:24.019Z,96899.78
2023-01-29T06:47:52.032Z,96915.63
2023-01-29T06:50:19.847Z,96929.00
2023-01-29T06:52:47.879Z,96941.53
2023-01-29T06:55:15.703Z,96945.69
2023-01-29T06:57:43.531Z,96950.69
2023-01-29T07:00:14.786Z,96964.88
2023-01-29T07:02:42.900Z,96970.72
2023-01-29T07:05:10.789Z,96973.19
2023-01-29T07:07:38.579Z,96974.00
2023-01-29T07:10:07.534Z,96979.88
2023-01-29T07:12:35.313Z,96974.84
2023-01-29T07:15:03.143Z,96978.19
2023-01-29T07:17:32.627Z,96977.34
2023-01-29T07:20:00.405Z,96981.56
2023-01-29T07:22:28.211Z,96985.75
2023-01-29T07:24:56.040Z,96993.25
2023-01-29T07:27:23.826Z,96999.06
2023-01-29T07:29:51.649Z,97013.25
2023-01-29T07:32:19.559Z,97023.28
2023-01-29T07:34:48.859Z,97034.94
2023-01-29T07:37:16.674Z,97039.06
2023-01-29T07:39:44.514Z,97055.00
2023-01-29T07:42:12.330Z,97057.47
2023-01-29T07:44:40.165Z,97061.59
2023-01-29T07:47:07.996Z,97079.19
2023-01-29T07:49:35.863Z,97091.75
2023-01-29T07:52:05.432Z,97097.50
2023-01-29T07:54:33.220Z,97111.75
2023-01-29T07:57:01.079Z,97120.03
2023-01-29T07:59:28.842Z,97134.25
2023-01-29T08:01:56.833Z,97136.75
2023-01-29T08:04:24.802Z,97150.16
2023-01-29T08:06:52.675Z,97160.13
2023-01-29T08:09:21.908Z,97172.72
2023-01-29T08:11:49.689Z,97179.34
2023-01-29T08:14:17.553Z,97181.84
2023-01-29T08:16:45.428Z,97190.19
2023-01-29T08:19:13.254Z,97194.38
2023-01-29T08:21:41.075Z,97204.41
2023-01-29T08:24:09.021Z,97215.28
2023-01-29T08:26:38.190Z,97225.31
2023-01-29T08:29:06.042Z,97231.19
2023-01-29T08:31:34.055Z,97240.34
2023-01-29T08:34:01.832Z,97255.38
2023-01-29T08:36:29.875Z,97259.50
2023-01-29T08:38:57.621Z,97278.78
2023-01-29T08:41:25.440Z,97288.75
2023-01-29T08:43:54.652Z,97305.44
2023-01-29T08:46:22.531Z,97319.72
2023-01-29T08:48:50.395Z,97324.66
2023-01-29T08:51:18.552Z,97342.28
2023-01-29T08:53:46.394Z,97345.56
2023-01-29T08:56:16.224Z,97361.50
2023-01-29T08:58:44.260Z,97369.03
2023-01-29T09:01:15.414Z,97385.72
2023-01-29T09:03:44.434Z,97413.34
2023-01-29T09:06:14.148Z,97425.03
2023-01-29T09:08:42.223Z,97451.00
2023-01-29T09:11:10.680Z,97471.94
2023-01-29T09:13:43.741Z,97481.09
2023-01-29T09:16:13.297Z,97499.47
2023-01-29T09:18:41.223Z,97517.88
2023-01-29T09:21:09.415Z,97537.09
2023-01-29T09:23:37.432Z,97556.41
2023-01-29T09:26:05.647Z,97571.47
2023-01-29T09:28:33.776Z,97573.16
2023-01-29T09:31:03.531Z,97577.31
2023-01-29T09:33:33.437Z,97592.38
2023-01-29T09:36:03.670Z,97601.56
2023-01-29T09:38:31.581Z,97621.69
2023-01-29T09:41:07.327Z,97632.63
2023-01-29T09:43:45.066Z,97647.66
2023-01-29T09:46:21.118Z,97651.81
2023-01-29T09:48:58.013Z,97662.72
2023-01-29T09:51:31.551Z,97677.84
2023-01-29T09:54:10.168Z,97682.81
2023-01-29T09:56:40.537Z,97697.88
2023-01-29T09:59:13.890Z,97717.19
2023-01-29T10:01:52.904Z,97736.47
2023-01-29T10:04:41.417Z,97744.81
2023-01-29T10:07:27.816Z,97759.03
2023-01-29T10:10:16.047Z,97772.50
2023-01-29T10:13:00.243Z,97781.72
2023-01-29T10:15:47.045Z,97804.34
2023-01-29T10:18:46.970Z,97812.75
2023-01-29T10:21:28.983Z,97826.09
2023-01-29T10:24:07.069Z,97846.25
2023-01-29T10:26:37.777Z,97853.75
2023-01-29T10:29:08.924Z,97858.81
2023-01-29T10:31:40.572Z,97875.56
2023-01-29T10:34:13.920Z,97885.63
2023-01-29T10:36:45.807Z,97889.03
2023-01-29T10:39:20.530Z,97883.09
2023-01-29T10:42:03.467Z,97900.78
2023-01-29T10:44:43.122Z,97893.22
2023-01-29T10:47:43.581Z,97889.88
2023-01-29T10:50:34.724Z,97892.41
2023-01-29T10:53:39.596Z,97890.72
2023-01-29T10:56:23.014Z,97883.97
2023-01-29T10:58:59.698Z,97876.38
2023-01-29T11:01:27.707Z,97882.31
2023-01-29T11:03:59.206Z,97878.09
2023-01-29T11:06:31.430Z,97886.50
2023-01-29T11:09:10.101Z,97890.75
2023-01-29T11:11:42.946Z,97889.03
2023-01-29T11:14:15.110Z,97896.59
2023-01-29T11:16:45.639Z,97907.50
2023-01-29T11:19:13.654Z,97922.59
2023-01-29T11:21:53.711Z,97922.59
2023-01-29T11:24:22.930Z,97933.50
2023-01-29T11:26:53.025Z,97943.53
2023-01-29T11:29:38.526Z,97951.97
2023-01-29T11:32:08.360Z,97958.69
2023-01-29T11:34:36.602Z,97970.44
2023-01-29T11:37:07.010Z,97977.09
2023-01-29T11:39:44.876Z,97988.00
2023-01-29T11:42:21.177Z,97993.91
2023-01-29T11:44:49.650Z,97988.06
2023-01-29T11:47:21.089Z,97993.91
2023-01-29T11:49:51.403Z,97995.56
2023-01-29T11:52:22.233Z,97997.28
2023-01-29T11:54:55.822Z,97997.22
2023-01-29T11:57:28.607Z,97996.41
2023-01-29T11:59:59.955Z,97997.28
2023-01-29T12:02:34.245Z,98001.47
2023-01-29T12:05:07.314Z,98004.78
2023-01-29T12:07:35.993Z,98019.06
2023-01-29T12:10:05.804Z,98036.69
2023-01-29T12:12:43.599Z,98035.03
2023-01-29T12:15:20.804Z,98026.63
2023-01-29T12:17:54.855Z,98029.16
2023-01-29T12:20:28.705Z,98040.88
2023-01-29T12:23:04.136Z,98057.66
2023-01-29T12:25:44.196Z,98072.84
2023-01-29T12:28:23.737Z,98080.38
2023-01-29T12:31:09.657Z,98085.44
2023-01-29T12:33:45.184Z,98077.00
2023-01-29T12:36:18.655Z,98083.72
2023-01-29T12:38:47.080Z,98088.75
2023-01-29T12:41:29.949Z,98079.53
2023-01-29T12:44:06.038Z,98084.59
2023-01-29T12:46:40.037Z,98086.25
2023-01-29T12:49:16.523Z,98081.25
2023-01-29T12:51:54.290Z,98077.88
2023-01-29T12:54:27.559Z,98078.72
2023-01-29T12:57:01.570Z,98082.06
2023-01-29T12:59:34.256Z,98088.81
2023-01-29T13:02:15.918Z,98096.31
2023-01-29T13:04:48.233Z,98098.84
2023-01-29T13:07:20.257Z,98104.72
2023-01-29T13:09:54.401Z,98121.53
2023-01-29T13:12:25.398Z,98136.63
2023-01-29T13:14:57.448Z,98147.50
2023-01-29T13:17:31.481Z,98166.91
2023-01-29T13:20:03.075Z,98166.88
2023-01-29T13:22:36.361Z,98169.41
2023-01-29T13:25:06.010Z,98162.66
2023-01-29T13:27:36.549Z,98150.88
2023-01-29T13:30:05.782Z,98145.03
2023-01-29T13:32:36.900Z,98148.38
2023-01-29T13:35:07.763Z,98148.38
2023-01-29T13:37:38.904Z,98161.00
2023-01-29T13:40:08.585Z,98165.25
2023-01-29T13:42:43.839Z,98158.47
2023-01-29T13:45:22.331Z,98161.88
2023-01-29T13:47:52.072Z,98170.28
2023-01-29T13:50:25.168Z,98166.88
2023-01-29T13:52:58.268Z,98165.19
2023-01-29T13:55:31.312Z,98153.41
2023-01-29T13:58:01.789Z,98144.19
2023-01-29T14:00:57.374Z,98140.00
2023-01-29T14:04:03.712Z,98146.72
2023-01-29T14:06:53.917Z,98145.91
2023-01-29T14:10:14.024Z,98145.91
2023-01-29T14:12:50.009Z,98135.81
2023-01-29T14:15:31.450Z,98134.13
2023-01-29T14:18:19.510Z,98130.78
2023-01-29T14:20:57.396Z,98136.66
2023-01-29T14:23:36.967Z,98134.13
2023-01-29T14:26:07.399Z,98129.94
2023-01-29T14:28:36.513Z,98129.94
2023-01-29T14:31:07.739Z,98139.22
2023-01-29T14:33:38.283Z,98129.94
2023-01-29T14:36:10.578Z,98130.78
2023-01-29T14:38:41.150Z,98126.53
2023-01-29T14:41:20.141Z,98133.31
2023-01-29T14:43:47.995Z,98129.94
2023-01-29T14:46:46.084Z,98129.94
2023-01-29T14:49:13.932Z,98122.38
2023-01-29T14:51:48.633Z,98117.31
2023-01-29T14:54:24.172Z,98119.03
2023-01-29T14:56:59.819Z,98121.53
2023-01-29T14:59:34.859Z,98123.22
2023-01-29T15:02:15.723Z,98119.03
2023-01-29T15:04:49.193Z,98126.59
2023-01-29T15:07:30.916Z,98127.41
2023-01-29T15:10:21.482Z,98124.03
2023-01-29T15:12:56.022Z,98133.31
2023-01-29T15:15:36.393Z,98139.22
2023-01-29T15:18:10.360Z,98139.16
2023-01-29T15:20:40.214Z,98142.53
2023-01-29T15:23:25.585Z,98144.22
2023-01-29T15:25:56.165Z,98140.88
2023-01-29T15:28:24.380Z,98141.69
2023-01-29T15:30:56.399Z,98140.88
2023-01-29T15:33:26.277Z,98138.34
2023-01-29T15:36:06.695Z,98143.41
2023-01-29T15:38:35.441Z,98141.69
2023-01-29T15:41:15.763Z,98140.88
2023-01-29T15:43:45.877Z,98140.88
2023-01-29T15:46:27.321Z,98139.22
2023-01-29T15:49:00.514Z,98134.19
2023-01-29T15:51:29.926Z,98135.00
2023-01-29T15:54:01.413Z,98137.50
2023-01-29T15:56:34.324Z,98139.13
2023-01-29T15:59:09.343Z,98152.66
2023-01-29T16:01:37.739Z,98145.03
2023-01-29T16:04:12.389Z,98144.22
2023-01-29T16:06:42.723Z,98145.94
2023-01-29T16:09:16.972Z,98145.06
2023-01-29T16:11:45.759Z,98140.00
2023-01-29T16:14:15.494Z,98140.00
2023-01-29T16:16:45.181Z,98153.50
2023-01-29T16:19:23.880Z,98142.53
2023-01-29T16:22:00.168Z,98141.69
2023-01-29T16:24:30.149Z,98136.66
2023-01-29T16:27:00.620Z,98137.50
2023-01-29T16:29:32.866Z,98133.31
2023-01-29T16:32:03.098Z,98133.31
2023-01-29T16:34:37.285Z,98133.31
2023-01-29T16:37:07.908Z,98127.41
2023-01-29T16:39:39.791Z,98121.56
2023-01-29T16:42:32.268Z,98111.47
2023-01-29T16:45:02.607Z,98113.16
2023-01-29T16:47:36.400Z,98105.59
2023-01-29T16:50:27.143Z,98096.34
2023-01-29T16:53:01.750Z,98092.16
2023-01-29T16:55:37.631Z,98093.03
2023-01-29T16:58:14.160Z,98078.75
2023-01-29T17:00:46.838Z,98072.88
2023-01-29T17:03:16.830Z,98062.81
2023-01-29T17:05:47.827Z,98047.69
2023-01-29T17:08:21.606Z,98041.81
2023-01-29T17:10:50.102Z,98033.44
2023-01-29T17:13:24.752Z,98035.97
2023-01-29T17:15:53.250Z,98024.22
2023-01-29T17:18:22.763Z,98013.25
2023-01-29T17:20:52.994Z,98009.06
2023-01-29T17:23:21.461Z,97991.41
2023-01-29T17:25:49.864Z,97984.72
2023-01-29T17:28:44.023Z,97969.59
2023-01-29T17:31:12.171Z,97961.25
2023-01-29T17:33:44.425Z,97946.16
2023-01-29T17:36:15.710Z,97928.50
2023-01-29T17:38:43.546Z,97923.47
2023-01-29T17:41:19.835Z,97915.06
2023-01-29T17:43:48.104Z,97918.47
2023-01-29T17:46:17.710Z,97910.94
2023-01-29T17:48:46.289Z,97905.06
2023-01-29T17:51:17.783Z,97896.66
2023-01-29T17:53:47.156Z,97895.00
2023-01-29T17:56:17.960Z,97881.53
2023-01-29T17:58:45.987Z,97881.59
2023-01-29T18:01:13.853Z,97878.22
2023-01-29T18:03:41.756Z,97872.34
2023-01-29T18:06:10.530Z,97865.59
2023-01-29T18:08:40.776Z,97870.66
2023-01-29T18:11:13.305Z,97874.88
2023-01-29T18:13:41.936Z,97875.69
2023-01-29T18:16:09.958Z,97872.34
2023-01-29T18:18:37.841Z,97870.66
2023-01-29T18:21:05.990Z,97876.53
2023-01-29T18:23:33.898Z,97873.19
2023-01-29T18:26:03.187Z,97874.88
2023-01-29T18:28:31.415Z,97875.69
2023-01-29T18:30:59.328Z,97877.41
2023-01-29T18:33:27.696Z,97874.88
2023-01-29T18:35:56.020Z,97880.78
2023-01-29T18:38:24.299Z,97880.75
2023-01-29T18:40:52.134Z,97879.94
2023-01-29T18:43:21.365Z,97874.88
2023-01-29T18:45:49.498Z,97878.25
2023-01-29T18:48:17.341Z,97870.66
2023-01-29T18:50:45.191Z,97869.81
2023-01-29T18:53:12.970Z,97874.00
2023-01-29T18:55:41.089Z,97879.94
2023-01-29T18:58:33.981Z,97874.00
2023-01-29T19:00:59.483Z,97883.28
2023-01-29T19:03:27.410Z,97872.34
2023-01-29T19:05:55.340Z,97884.13
2023-01-29T19:08:23.151Z,97879.94
2023-01-29T19:10:50.966Z,97877.41
2023-01-29T19:13:18.807Z,97870.66
2023-01-29T19:15:48.134Z,97884.13
2023-01-29T19:18:17.405Z,97883.28
2023-01-29T19:20:45.252Z,97879.94
2023-01-29T19:23:13.250Z,97879.06
2023-01-29T19:25:41.313Z,97877.41
2023-01-29T19:28:09.321Z,97879.94
2023-01-29T19:30:39.025Z,97880.72
2023-01-29T19:33:06.887Z,97880.75
2023-01-29T19:35:36.251Z,97882.41
2023-01-29T19:38:06.184Z,97880.72
2023-01-29T19:40:34.092Z,97889.97
2023-01-29T19:43:01.884Z,97889.13
2023-01-29T19:45:49.900Z,97884.91
2023-01-29T19:48:20.338Z,97900.94
2023-01-29T19:50:54.328Z,97889.09
2023-01-29T19:53:22.802Z,97907.59
2023-01-29T19:58:57.432Z,97894.16
2023-01-29T20:01:26.041Z,97898.34
2023-01-29T20:03:53.897Z,97900.06
2023-01-29T20:06:25.323Z,97898.34
2023-01-29T20:08:53.477Z,97900.06
2023-01-29T20:11:23.655Z,97897.47
2023-01-29T20:13:52.986Z,97898.34
2023-01-29T20:16:21.169Z,97902.53
2023-01-29T20:18:49.065Z,97910.13
2023-01-29T20:21:20.427Z,97901.72
2023-01-29T20:23:52.237Z,97905.06
2023-01-29T20:26:21.415Z,97905.94
2023-01-29T20:28:49.905Z,97896.69
2023-01-29T20:31:18.125Z,97898.34
2023-01-29T20:33:46.003Z,97904.25
2023-01-29T20:36:14.920Z,97895.88
2023-01-29T20:38:42.851Z,97889.13
2023-01-29T20:41:15.155Z,97890.84
2023-01-29T20:43:43.843Z,97883.28
2023-01-29T20:46:12.614Z,97884.13
2023-01-29T20:48:42.095Z,97877.41
2023-01-29T20:51:13.610Z,97874.06
2023-01-29T20:53:43.340Z,97874.88
2023-01-29T20:56:13.650Z,97876.59
2023-01-29T20:58:41.932Z,97876.59
2023-01-29T21:01:10.541Z,97879.06
2023-01-29T21:03:39.651Z,97875.72
2023-01-29T21:06:08.512Z,97869.81
2023-01-29T21:08:36.923Z,97877.41
2023-01-29T21:11:05.109Z,97877.41
2023-01-29T21:13:34.837Z,97874.06
2023-01-29T21:16:03.142Z,97878.25
2023-01-29T21:18:32.210Z,97882.47
2023-01-29T21:21:00.140Z,97884.13
2023-01-29T21:23:27.980Z,97885.00
2023-01-29T21:26:02.149Z,97880.75
2023-01-29T21:28:30.153Z,97887.47
2023-01-29T21:31:05.867Z,97886.66
2023-01-29T21:33:34.353Z,97886.66
2023-01-29T21:36:02.677Z,97890.84
2023-01-29T21:38:31.222Z,97892.53
2023-01-29T21:41:03.501Z,97889.13
2023-01-29T21:43:30.453Z,97893.34
2023-01-29T21:46:00.256Z,97900.88
2023-01-29T21:48:29.472Z,97903.41
2023-01-29T21:50:57.437Z,97911.81
2023-01-29T21:53:25.376Z,97910.13
2023-01-29T21:55:53.306Z,97918.50
2023-01-29T21:58:21.094Z,97929.41
2023-01-29T22:00:49.643Z,97923.47
2023-01-29T22:03:17.802Z,97941.16
2023-01-29T22:05:46.983Z,97934.44
2023-01-29T22:08:14.915Z,97941.16
2023-01-29T22:10:42.890Z,97947.88
2023-01-29T22:13:10.759Z,97959.66
2023-01-29T22:15:38.685Z,97956.25
2023-01-29T22:18:06.693Z,97956.25
2023-01-29T22:20:34.495Z,97954.59
2023-01-29T22:23:03.775Z,97950.34
2023-01-29T22:25:33.483Z,97947.81
2023-01-29T22:28:01.566Z,97956.25
2023-01-29T22:30:29.329Z,97962.16
2023-01-29T22:32:57.187Z,97968.84
2023-01-29T22:35:24.966Z,97973.06
2023-01-29T22:37:52.927Z,97978.03
2023-01-29T22:40:22.047Z,97978.91
2023-01-29T22:42:49.883Z,97985.63
2023-01-29T22:45:18.013Z,97992.34
2023-01-29T22:47:45.860Z,97999.91
2023-01-29T22:50:14.252Z,97999.91
2023-01-29T22:52:43.216Z,98010.81
2023-01-29T22:55:12.397Z,98004.03
2023-01-29T22:57:41.670Z,98009.09
2023-01-29T23:00:12.140Z,98013.31
2023-01-29T23:06:36.882Z,98020.03
2023-01-29T23:09:04.831Z,98020.03
2023-01-29T23:11:32.724Z,98020.03
2023-01-29T23:14:00.512Z,98027.59
2023-01-29T23:16:29.367Z,98035.19
2023-01-29T23:18:57.949Z,98026.75
2023-01-29T23:21:27.770Z,98028.41
2023-01-29T23:23:58.331Z,98034.34
2023-01-29T23:26:44.616Z,98021.72
2023-01-29T23:29:12.843Z,98013.31
2023-01-29T23:31:40.925Z,97988.94
2023-01-29T23:34:08.929Z,97974.72
2023-01-29T23:36:36.671Z,97957.91
2023-01-29T23:39:06.344Z,97948.75
2023-01-29T23:41:34.336Z,97943.69
2023-01-29T23:44:02.124Z,97936.09
2023-01-29T23:46:30.087Z,97932.72
2023-01-29T23:48:57.971Z,97937.81
2023-01-29T23:51:25.930Z,97935.25
2023-01-29T23:53:54.031Z,97946.22
2023-01-29T23:56:23.279Z,97956.25
2023-01-29T23:58:54.156Z,97955.44
